SWA3222 KRNO-KDEN
Flight info
| Callsign | SWA3222 |
|---|---|
| Flight time | N/A |
| Altitude | 39000 |
| Route | ZEFFR9 BLKJK LLC SLOWN Q124 BVL TCH KAMPR LONGZ4 |
| Aircraft | B737/M-SDE2E3GIJ4RWZ/LB1D1 |
Departure
| Time | 2026-04-28 21:14 |
|---|---|
| Airport | Reno Tahoe International Airport (KRNO) |
Arrival
| Time | N/A |
|---|---|
| Airport | Denver International Airport (KDEN) |
| Time | Latitude | Longitude | Altitude | Speed | Heading |
|---|---|---|---|---|---|
| 2026-04-28 21:03 | 39.50440 | -119.77375 | 4516 ft | 0 kts | 359° |
| 2026-04-28 21:06 | 39.50418 | -119.77374 | 4513 ft | 4 kts | 359° |
| 2026-04-28 21:06 | 39.50399 | -119.77374 | 4510 ft | 4 kts | 338° |
| 2026-04-28 21:06 | 39.50379 | -119.77365 | 4510 ft | 4 kts | 36° |
| 2026-04-28 21:06 | 39.50374 | -119.77390 | 4509 ft | 4 kts | 90° |
| 2026-04-28 21:07 | 39.50374 | -119.77402 | 4509 ft | 0 kts | 90° |
| 2026-04-28 21:09 | 39.50374 | -119.77400 | 4510 ft | 1 kts | 90° |
| 2026-04-28 21:09 | 39.50374 | -119.77389 | 4510 ft | 2 kts | 90° |
| 2026-04-28 21:10 | 39.50374 | -119.77359 | 4510 ft | 5 kts | 90° |
| 2026-04-28 21:10 | 39.50374 | -119.77295 | 4511 ft | 9 kts | 90° |
| 2026-04-28 21:10 | 39.50374 | -119.77196 | 4510 ft | 13 kts | 87° |
| 2026-04-28 21:10 | 39.50446 | -119.77151 | 4509 ft | 13 kts | 1° |
| 2026-04-28 21:11 | 39.50545 | -119.77150 | 4509 ft | 16 kts | 2° |
| 2026-04-28 21:11 | 39.50664 | -119.77150 | 4509 ft | 18 kts | 356° |
| 2026-04-28 21:11 | 39.50799 | -119.77153 | 4508 ft | 21 kts | 0° |
| 2026-04-28 21:11 | 39.50950 | -119.77147 | 4509 ft | 22 kts | 356° |
| 2026-04-28 21:12 | 39.51106 | -119.77151 | 4512 ft | 23 kts | 0° |
| 2026-04-28 21:12 | 39.51261 | -119.77151 | 4512 ft | 22 kts | 0° |
| 2026-04-28 21:12 | 39.51375 | -119.77100 | 4509 ft | 16 kts | 77° |
| 2026-04-28 21:12 | 39.51370 | -119.76954 | 4511 ft | 16 kts | 87° |
| 2026-04-28 21:13 | 39.51373 | -119.76815 | 4509 ft | 15 kts | 90° |
| 2026-04-28 21:13 | 39.51369 | -119.76689 | 4509 ft | 11 kts | 123° |
| 2026-04-28 21:13 | 39.51315 | -119.76674 | 4510 ft | 7 kts | 180° |
| 2026-04-28 21:13 | 39.51229 | -119.76673 | 4509 ft | 29 kts | 180° |
| 2026-04-28 21:14 | 39.50773 | -119.76677 | 4513 ft | 101 kts | 180° |
| 2026-04-28 21:14 | 39.49849 | -119.76678 | 4514 ft | 161 kts | 179° |
| 2026-04-28 21:14 | 39.48689 | -119.76678 | 5097 ft | 162 kts | 179° |
| 2026-04-28 21:14 | 39.47617 | -119.76739 | 6093 ft | 154 kts | 183° |
| 2026-04-28 21:15 | 39.46474 | -119.76811 | 6537 ft | 178 kts | 181° |
| 2026-04-28 21:15 | 39.45124 | -119.76864 | 6835 ft | 209 kts | 181° |
| 2026-04-28 21:15 | 39.43585 | -119.76923 | 7211 ft | 229 kts | 181° |
| 2026-04-28 21:15 | 39.41968 | -119.76954 | 7849 ft | 239 kts | 180° |
| 2026-04-28 21:16 | 39.40263 | -119.76955 | 8569 ft | 248 kts | 179° |
| 2026-04-28 21:16 | 39.38532 | -119.76955 | 9503 ft | 249 kts | 180° |
| 2026-04-28 21:16 | 39.36784 | -119.76957 | 10374 ft | 253 kts | 180° |
| 2026-04-28 21:16 | 39.35012 | -119.76961 | 11209 ft | 256 kts | 180° |
| 2026-04-28 21:17 | 39.33227 | -119.76832 | 12029 ft | 260 kts | 165° |
| 2026-04-28 21:17 | 39.31647 | -119.75706 | 12847 ft | 264 kts | 135° |
| 2026-04-28 21:17 | 39.30545 | -119.73772 | 13508 ft | 277 kts | 121° |
| 2026-04-28 21:17 | 39.29543 | -119.71499 | 13836 ft | 302 kts | 119° |
| 2026-04-28 21:18 | 39.28551 | -119.69053 | 14536 ft | 311 kts | 114° |
| 2026-04-28 21:18 | 39.28106 | -119.66320 | 15374 ft | 315 kts | 88° |
| 2026-04-28 21:18 | 39.28590 | -119.63528 | 16002 ft | 329 kts | 66° |
| 2026-04-28 21:18 | 39.29814 | -119.60919 | 16195 ft | 353 kts | 54° |
| 2026-04-28 21:19 | 39.31314 | -119.58264 | 16353 ft | 378 kts | 53° |
| 2026-04-28 21:19 | 39.32909 | -119.55435 | 16516 ft | 400 kts | 54° |
| 2026-04-28 21:19 | 39.34553 | -119.52457 | 16930 ft | 412 kts | 54° |
| 2026-04-28 21:19 | 39.36323 | -119.49518 | 17559 ft | 417 kts | 46° |
| 2026-04-28 21:20 | 39.38427 | -119.46935 | 18325 ft | 418 kts | 41° |
| 2026-04-28 21:20 | 39.40613 | -119.44427 | 18959 ft | 422 kts | 40° |
| 2026-04-28 21:20 | 39.42812 | -119.41897 | 19592 ft | 424 kts | 41° |
| 2026-04-28 21:20 | 39.45002 | -119.39323 | 20232 ft | 426 kts | 41° |
| 2026-04-28 21:21 | 39.47187 | -119.36708 | 20851 ft | 429 kts | 42° |
| 2026-04-28 21:21 | 39.49378 | -119.34063 | 21447 ft | 432 kts | 42° |
| 2026-04-28 21:21 | 39.51585 | -119.31401 | 22026 ft | 435 kts | 42° |
| 2026-04-28 21:21 | 39.53815 | -119.28731 | 22607 ft | 438 kts | 41° |
| 2026-04-28 21:22 | 39.56065 | -119.26047 | 23158 ft | 441 kts | 41° |
| 2026-04-28 21:22 | 39.58332 | -119.23344 | 23682 ft | 444 kts | 41° |
| 2026-04-28 21:22 | 39.60609 | -119.20623 | 24105 ft | 447 kts | 41° |
| 2026-04-28 21:22 | 39.62124 | -119.18812 | 24415 ft | 448 kts | 41° |
| 2026-04-28 21:23 | 39.65191 | -119.15137 | 25028 ft | 450 kts | 41° |
| 2026-04-28 21:23 | 39.67491 | -119.12373 | 25449 ft | 452 kts | 41° |
| 2026-04-28 21:23 | 39.69799 | -119.09597 | 25860 ft | 453 kts | 41° |
| 2026-04-28 21:23 | 39.72117 | -119.06809 | 26257 ft | 455 kts | 41° |
| 2026-04-28 21:24 | 39.74415 | -119.04043 | 26642 ft | 457 kts | 41° |
| 2026-04-28 21:24 | 39.76779 | -119.01197 | 27024 ft | 459 kts | 41° |
| 2026-04-28 21:24 | 39.79095 | -118.98405 | 27365 ft | 461 kts | 41° |
| 2026-04-28 21:24 | 39.81454 | -118.95558 | 27722 ft | 463 kts | 41° |
| 2026-04-28 21:25 | 39.83812 | -118.92710 | 28173 ft | 462 kts | 41° |
| 2026-04-28 21:25 | 39.86155 | -118.89875 | 28714 ft | 459 kts | 41° |
| 2026-04-28 21:25 | 39.88489 | -118.87046 | 29292 ft | 456 kts | 41° |
| 2026-04-28 21:25 | 39.90802 | -118.84240 | 29835 ft | 454 kts | 41° |
| 2026-04-28 21:26 | 39.93114 | -118.81433 | 30311 ft | 453 kts | 41° |
| 2026-04-28 21:26 | 39.95419 | -118.78634 | 30670 ft | 454 kts | 41° |
| 2026-04-28 21:26 | 39.97732 | -118.75822 | 31014 ft | 455 kts | 41° |
| 2026-04-28 21:26 | 40.00074 | -118.72973 | 31395 ft | 454 kts | 41° |
| 2026-04-28 21:27 | 40.02352 | -118.70197 | 31799 ft | 453 kts | 41° |
| 2026-04-28 21:27 | 40.04656 | -118.67388 | 32190 ft | 453 kts | 41° |
| 2026-04-28 21:27 | 40.06950 | -118.64587 | 32543 ft | 453 kts | 41° |
| 2026-04-28 21:27 | 40.09236 | -118.61757 | 32887 ft | 453 kts | 44° |
| 2026-04-28 21:28 | 40.11254 | -118.58507 | 33226 ft | 456 kts | 53° |
| 2026-04-28 21:28 | 40.12861 | -118.54924 | 33586 ft | 458 kts | 61° |
| 2026-04-28 21:28 | 40.14064 | -118.51055 | 33907 ft | 462 kts | 70° |
| 2026-04-28 21:28 | 40.14947 | -118.47060 | 34204 ft | 463 kts | 72° |
| 2026-04-28 21:29 | 40.15796 | -118.42930 | 34417 ft | 465 kts | 72° |
| 2026-04-28 21:29 | 40.16606 | -118.38898 | 34614 ft | 466 kts | 73° |
| 2026-04-28 21:29 | 40.17433 | -118.34795 | 34838 ft | 467 kts | 73° |
| 2026-04-28 21:29 | 40.18272 | -118.30693 | 35071 ft | 467 kts | 73° |
| 2026-04-28 21:30 | 40.19122 | -118.26584 | 35282 ft | 468 kts | 72° |
| 2026-04-28 21:30 | 40.19983 | -118.22457 | 35498 ft | 469 kts | 72° |
| 2026-04-28 21:30 | 40.20846 | -118.18342 | 35727 ft | 470 kts | 72° |
| 2026-04-28 21:30 | 40.21711 | -118.14222 | 35947 ft | 470 kts | 73° |
| 2026-04-28 21:31 | 40.22577 | -118.10084 | 36138 ft | 472 kts | 73° |
| 2026-04-28 21:31 | 40.23443 | -118.05939 | 36334 ft | 473 kts | 73° |
| 2026-04-28 21:31 | 40.24308 | -118.01794 | 36553 ft | 473 kts | 73° |
| 2026-04-28 21:31 | 40.25174 | -117.97633 | 36769 ft | 473 kts | 73° |
| 2026-04-28 21:32 | 40.26039 | -117.93468 | 36961 ft | 474 kts | 73° |
| 2026-04-28 21:32 | 40.26904 | -117.89293 | 37145 ft | 475 kts | 73° |
| 2026-04-28 21:32 | 40.27767 | -117.85119 | 37358 ft | 476 kts | 73° |
| 2026-04-28 21:32 | 40.28632 | -117.80926 | 37581 ft | 476 kts | 73° |
| 2026-04-28 21:33 | 40.29494 | -117.76736 | 37786 ft | 477 kts | 73° |
| 2026-04-28 21:33 | 40.30359 | -117.72526 | 37972 ft | 478 kts | 73° |
| 2026-04-28 21:33 | 40.31220 | -117.68328 | 38160 ft | 478 kts | 74° |
| 2026-04-28 21:33 | 40.32082 | -117.64117 | 38353 ft | 479 kts | 74° |
| 2026-04-28 21:34 | 40.32941 | -117.59910 | 38545 ft | 479 kts | 74° |
| 2026-04-28 21:34 | 40.33802 | -117.55688 | 38735 ft | 480 kts | 74° |
| 2026-04-28 21:34 | 40.34662 | -117.51458 | 38897 ft | 480 kts | 74° |
| 2026-04-28 21:34 | 40.35522 | -117.47218 | 39026 ft | 481 kts | 74° |
| 2026-04-28 21:35 | 40.37238 | -117.38740 | 39119 ft | 482 kts | 74° |
| 2026-04-28 21:35 | 40.38663 | -117.31672 | 39131 ft | 482 kts | 74° |